Terminal Aerodrome Forecast
Issued by NWS Midland/Odessa, TX

Home | Current Version | Previous Version | Text Only | Print | Product List | Glossary On
Versions: 1 2 3 4 5 6 7 8 9 10 11 12 13 14 15 16 17 18 19 20 21 22 23 24 25 26
000
FTUS44 KMAF 230500
TAFMAF
TAF
KMAF 230538Z 2306/2406 25009KT P6SM FEW200
     FM231200 26015G20KT P6SM SCT200
     FM231700 30027G32KT P6SM FEW200
     FM240100 33013KT P6SM SKC=

USA.gov is the U.S. government's official web portal to all federal, state and local government web resources and services.